createdAt,value
2019-06-26T00:01:37.932Z,24.60
2019-06-26T00:04:07.641Z,24.50
2019-06-26T00:06:37.284Z,24.40
2019-06-26T00:09:08.839Z,24.40
2019-06-26T00:11:39.161Z,24.30
2019-06-26T00:14:08.889Z,24.20
2019-06-26T00:16:38.696Z,24.20
2019-06-26T00:19:08.339Z,24.20
2019-06-26T00:21:38.015Z,24.10
2019-06-26T00:24:08.573Z,24.10
2019-06-26T00:26:38.238Z,24.10
2019-06-26T00:29:07.888Z,24.10
2019-06-26T00:31:37.632Z,24.10
2019-06-26T00:34:07.529Z,24.10
2019-06-26T00:36:37.247Z,24.00
2019-06-26T00:39:07.596Z,24.00
2019-06-26T00:41:37.239Z,24.00
2019-06-26T00:44:07.037Z,23.90
2019-06-26T00:46:36.696Z,23.90
2019-06-26T00:49:06.735Z,23.80
2019-06-26T00:51:36.427Z,23.80
2019-06-26T00:54:06.225Z,23.80
2019-06-26T00:56:36.138Z,23.70
2019-06-26T00:59:05.808Z,23.70
2019-06-26T01:01:35.491Z,23.60
2019-06-26T01:04:07.036Z,23.60
2019-06-26T01:06:41.030Z,23.50
2019-06-26T01:09:11.033Z,23.40
2019-06-26T01:11:40.689Z,23.40
2019-06-26T01:14:10.355Z,23.30
2019-06-26T01:16:39.999Z,23.30
2019-06-26T01:19:09.806Z,23.30
2019-06-26T01:21:39.451Z,23.20
2019-06-26T01:24:09.981Z,23.30
2019-06-26T01:26:39.669Z,23.30
2019-06-26T01:29:09.381Z,23.20
2019-06-26T01:31:39.139Z,23.20
2019-06-26T01:34:08.887Z,23.10
2019-06-26T01:36:38.613Z,23.00
2019-06-26T01:39:08.424Z,23.00
2019-06-26T01:41:38.082Z,22.90
2019-06-26T01:44:14.664Z,23.00
2019-06-26T01:46:40.949Z,23.00
2019-06-26T01:49:10.657Z,23.00
2019-06-26T01:51:42.024Z,23.00
2019-06-26T01:54:11.768Z,22.90
2019-06-26T01:56:41.454Z,22.80
2019-06-26T01:59:11.150Z,22.80
2019-06-26T02:01:40.840Z,22.70
2019-06-26T02:04:10.815Z,22.80
2019-06-26T02:06:40.487Z,22.70
2019-06-26T02:09:10.130Z,22.70
2019-06-26T02:11:39.827Z,22.70
2019-06-26T02:14:09.571Z,22.70
2019-06-26T02:16:39.248Z,22.70
2019-06-26T02:19:13.769Z,22.70
2019-06-26T02:21:43.600Z,22.70
2019-06-26T02:24:14.275Z,22.60
2019-06-26T02:26:43.905Z,22.70
2019-06-26T02:29:13.558Z,22.70
2019-06-26T02:31:43.304Z,22.60
2019-06-26T02:34:12.996Z,22.70
2019-06-26T02:36:42.738Z,22.70
2019-06-26T02:39:12.404Z,22.70
2019-06-26T02:41:42.186Z,22.70
2019-06-26T02:44:11.928Z,22.70
2019-06-26T02:46:41.665Z,22.60
2019-06-26T02:49:11.387Z,22.60
2019-06-26T02:51:41.135Z,22.60
2019-06-26T02:54:10.873Z,22.60
2019-06-26T02:56:40.573Z,22.70
2019-06-26T02:59:10.299Z,22.60
2019-06-26T03:01:40.058Z,22.50
2019-06-26T03:04:09.788Z,22.40
2019-06-26T03:06:39.484Z,22.50
2019-06-26T03:09:09.385Z,22.50
2019-06-26T03:11:39.039Z,22.50
2019-06-26T03:14:08.762Z,22.50
2019-06-26T03:16:38.451Z,22.50
2019-06-26T03:19:08.164Z,22.50
2019-06-26T03:21:37.793Z,22.60
2019-06-26T03:24:07.767Z,22.50
2019-06-26T03:26:42.313Z,22.50
2019-06-26T03:29:12.054Z,22.60
2019-06-26T03:31:41.699Z,22.60
2019-06-26T03:34:11.440Z,22.60
2019-06-26T03:36:41.187Z,22.60
2019-06-26T03:39:10.867Z,22.50
2019-06-26T03:41:40.568Z,22.50
2019-06-26T03:44:10.221Z,22.60
2019-06-26T03:46:39.955Z,22.70
2019-06-26T03:49:09.629Z,22.80
2019-06-26T03:51:39.296Z,23.00
2019-06-26T03:54:09.013Z,23.10
2019-06-26T03:56:38.738Z,23.20
2019-06-26T03:59:08.403Z,23.30
2019-06-26T04:01:38.154Z,23.40
2019-06-26T04:04:07.835Z,23.40
2019-06-26T04:06:37.570Z,23.50
2019-06-26T04:09:07.280Z,23.60
2019-06-26T04:11:36.955Z,23.70
2019-06-26T04:14:06.710Z,23.80
2019-06-26T04:16:36.475Z,23.90
2019-06-26T04:19:06.303Z,24.00
2019-06-26T04:21:36.421Z,24.00
2019-06-26T04:24:06.104Z,24.10
2019-06-26T04:26:35.759Z,24.00
2019-06-26T04:29:06.866Z,24.20
2019-06-26T04:31:36.507Z,24.20
2019-06-26T04:34:06.200Z,24.30
2019-06-26T04:36:35.894Z,24.40
2019-06-26T04:39:06.800Z,24.50
2019-06-26T04:41:36.461Z,24.60
2019-06-26T04:44:07.182Z,24.70
2019-06-26T04:46:36.831Z,24.70
2019-06-26T04:49:06.512Z,24.70
2019-06-26T04:51:36.210Z,24.80
2019-06-26T04:54:05.867Z,24.90
2019-06-26T04:56:35.554Z,25.00
2019-06-26T04:59:05.303Z,25.10
2019-06-26T05:01:35.022Z,25.20
2019-06-26T05:04:04.740Z,25.30
2019-06-26T05:06:34.426Z,25.30
2019-06-26T05:09:05.755Z,25.40
2019-06-26T05:11:35.444Z,25.40
2019-06-26T05:14:05.230Z,25.50
2019-06-26T05:16:34.959Z,25.60
2019-06-26T05:19:04.725Z,25.70
2019-06-26T05:21:34.383Z,25.80
2019-06-26T05:24:04.023Z,25.70
2019-06-26T05:26:33.710Z,25.60
2019-06-26T05:29:03.474Z,25.50
2019-06-26T05:31:33.928Z,25.40
2019-06-26T05:34:03.575Z,25.50
2019-06-26T05:36:33.212Z,25.70
2019-06-26T05:39:03.073Z,25.90
2019-06-26T05:41:32.728Z,26.00
2019-06-26T05:44:02.911Z,26.10
2019-06-26T05:46:32.582Z,26.30
2019-06-26T05:49:03.308Z,26.40
2019-06-26T05:51:33.022Z,26.50
2019-06-26T05:54:03.755Z,26.70
2019-06-26T05:56:33.467Z,26.70
2019-06-26T05:59:03.091Z,26.70
2019-06-26T06:01:32.720Z,26.70
2019-06-26T06:04:02.394Z,26.60
2019-06-26T06:06:41.838Z,26.70
2019-06-26T06:09:04.638Z,26.70
2019-06-26T06:11:34.287Z,26.80
2019-06-26T06:14:04.107Z,26.90
2019-06-26T06:16:46.866Z,26.80
2019-06-26T06:19:06.185Z,26.80
2019-06-26T06:21:35.988Z,27.00
2019-06-26T06:24:06.710Z,27.10
2019-06-26T06:26:36.461Z,27.20
2019-06-26T06:29:06.330Z,27.20
2019-06-26T06:31:37.770Z,27.30
2019-06-26T06:34:07.440Z,27.40
2019-06-26T06:36:37.157Z,27.50
2019-06-26T06:39:07.074Z,27.70
2019-06-26T06:41:36.808Z,27.80
2019-06-26T06:44:06.721Z,27.90
2019-06-26T06:46:36.385Z,27.90
2019-06-26T06:49:06.035Z,27.90
2019-06-26T06:51:35.695Z,28.10
2019-06-26T06:54:05.457Z,28.20
2019-06-26T06:56:35.144Z,28.20
2019-06-26T06:59:04.970Z,28.30
2019-06-26T07:01:34.635Z,28.40
2019-06-26T07:04:04.426Z,28.40
2019-06-26T07:06:34.081Z,28.50
2019-06-26T07:09:06.657Z,28.50
2019-06-26T07:11:36.473Z,28.40
2019-06-26T07:14:06.192Z,28.40
2019-06-26T07:16:35.895Z,28.40
2019-06-26T07:19:05.648Z,28.40
2019-06-26T07:21:35.359Z,28.50
2019-06-26T07:24:05.080Z,28.40
2019-06-26T07:26:34.762Z,28.50
2019-06-26T07:29:04.485Z,28.60
2019-06-26T07:31:34.175Z,28.50
2019-06-26T07:34:04.626Z,28.60
2019-06-26T07:36:34.379Z,28.70
2019-06-26T07:39:05.845Z,28.60
2019-06-26T07:41:35.779Z,28.70
2019-06-26T07:44:05.575Z,28.70
2019-06-26T07:46:35.255Z,28.70
2019-06-26T07:49:05.002Z,28.70
2019-06-26T07:51:34.789Z,28.90
2019-06-26T07:54:05.417Z,28.90
2019-06-26T07:56:35.213Z,28.90
2019-06-26T07:59:04.865Z,28.90
2019-06-26T08:01:34.581Z,29.00
2019-06-26T08:04:04.431Z,29.00
2019-06-26T08:06:34.104Z,29.00
2019-06-26T08:09:04.186Z,29.20
2019-06-26T08:11:33.967Z,29.20
2019-06-26T08:14:06.629Z,29.40
2019-06-26T08:16:36.633Z,29.40
2019-06-26T08:19:06.327Z,29.40
2019-06-26T08:21:35.991Z,29.50
2019-06-26T08:24:05.831Z,29.50
2019-06-26T08:26:35.508Z,29.50
2019-06-26T08:29:05.274Z,29.50
2019-06-26T08:31:34.988Z,29.60
2019-06-26T08:34:05.696Z,29.50
2019-06-26T08:36:35.429Z,29.60
2019-06-26T08:39:06.911Z,29.70
2019-06-26T08:41:36.632Z,29.70
2019-06-26T08:44:06.280Z,29.70
2019-06-26T08:46:35.971Z,29.80
2019-06-26T08:49:05.859Z,29.80
2019-06-26T08:51:35.972Z,29.90
2019-06-26T08:54:05.895Z,29.90
2019-06-26T08:56:35.576Z,30.00
2019-06-26T08:59:05.308Z,30.10
2019-06-26T09:01:35.176Z,30.10
2019-06-26T09:04:04.849Z,30.00
2019-06-26T09:06:34.603Z,30.00
2019-06-26T09:09:07.493Z,30.20
2019-06-26T09:11:37.399Z,30.30
2019-06-26T09:14:07.128Z,30.40
2019-06-26T09:16:37.937Z,30.50
2019-06-26T09:19:07.681Z,30.50
2019-06-26T09:21:37.414Z,30.30
2019-06-26T09:24:07.110Z,30.50
2019-06-26T09:26:36.816Z,30.50
2019-06-26T09:29:06.629Z,30.50
2019-06-26T09:31:36.368Z,30.40
2019-06-26T09:34:07.020Z,30.40
2019-06-26T09:36:36.832Z,30.50
2019-06-26T09:39:08.481Z,30.70
2019-06-26T09:41:38.273Z,30.60
2019-06-26T09:44:08.110Z,30.70
2019-06-26T09:46:37.784Z,30.80
2019-06-26T09:49:07.461Z,30.90
2019-06-26T09:51:37.224Z,31.00
2019-06-26T09:54:07.087Z,31.10
2019-06-26T09:56:36.843Z,31.00
2019-06-26T09:59:06.663Z,31.10
2019-06-26T10:01:36.370Z,31.20
2019-06-26T10:04:06.095Z,31.20
2019-06-26T10:06:36.098Z,31.40
2019-06-26T10:09:08.045Z,31.50
2019-06-26T10:11:37.840Z,31.60
2019-06-26T10:14:07.486Z,31.60
2019-06-26T10:16:37.247Z,31.70
2019-06-26T10:19:10.609Z,31.90
2019-06-26T10:21:39.405Z,31.90
2019-06-26T10:24:09.173Z,31.90
2019-06-26T10:26:38.952Z,32.20
2019-06-26T10:29:08.723Z,32.50
2019-06-26T10:31:38.657Z,32.80
2019-06-26T10:34:10.326Z,32.80
2019-06-26T10:36:40.218Z,33.10
2019-06-26T11:06:32.291Z,35.40
2019-06-26T11:11:32.875Z,36.40
2019-06-26T11:19:02.805Z,35.80
2019-06-26T11:21:32.478Z,35.90
2019-06-26T11:24:02.118Z,35.80
2019-06-26T11:26:31.855Z,35.60
2019-06-26T11:29:01.608Z,35.90
2019-06-26T11:31:31.561Z,36.00
2019-06-26T11:34:01.374Z,36.20
2019-06-26T11:36:32.028Z,36.10
2019-06-26T11:39:01.907Z,36.40
2019-06-26T11:41:33.188Z,36.80
2019-06-26T11:44:03.191Z,36.40
2019-06-26T11:46:32.943Z,36.30
2019-06-26T11:49:05.802Z,36.40
2019-06-26T11:51:35.719Z,37.20
2019-06-26T11:54:05.597Z,37.10
2019-06-26T11:56:35.434Z,37.90
2019-06-26T11:59:05.236Z,37.30
2019-06-26T12:01:35.159Z,37.40
2019-06-26T12:04:05.213Z,37.80
2019-06-26T12:06:34.920Z,37.70
2019-06-26T12:09:07.661Z,37.90
2019-06-26T12:11:37.338Z,38.90
2019-06-26T12:14:06.967Z,39.60
2019-06-26T12:16:36.676Z,38.80
2019-06-26T12:19:08.380Z,38.10
2019-06-26T12:21:37.995Z,38.10
2019-06-26T12:24:07.709Z,38.80
2019-06-26T12:26:37.607Z,38.80
2019-06-26T12:29:10.300Z,38.90
2019-06-26T12:31:39.959Z,38.80
2019-06-26T12:34:09.604Z,39.30
2019-06-26T12:36:40.132Z,38.00
2019-06-26T12:39:09.940Z,38.70
2019-06-26T12:41:39.592Z,39.60
2019-06-26T12:44:09.329Z,39.40
2019-06-26T12:46:38.990Z,39.80
2019-06-26T12:49:08.664Z,38.80
2019-06-26T12:51:38.357Z,38.70
2019-06-26T12:54:08.261Z,38.40
2019-06-26T12:56:37.896Z,39.20
2019-06-26T12:59:07.539Z,39.60
2019-06-26T13:01:37.341Z,40.90
2019-06-26T13:04:07.171Z,40.60
2019-06-26T13:06:36.852Z,40.60
2019-06-26T13:09:08.433Z,41.00
2019-06-26T13:11:38.466Z,39.80
2019-06-26T13:14:08.093Z,39.30
2019-06-26T13:16:37.734Z,39.90
2019-06-26T13:19:07.383Z,39.50
2019-06-26T13:21:37.372Z,41.10
2019-06-26T13:24:07.344Z,41.50
2019-06-26T13:26:37.070Z,41.80
2019-06-26T13:29:09.736Z,43.10
2019-06-26T13:31:38.325Z,43.90
2019-06-26T13:34:08.974Z,44.50
2019-06-26T13:36:38.763Z,45.10
2019-06-26T13:39:09.321Z,45.20
2019-06-26T13:41:39.185Z,43.50
2019-06-26T13:44:10.029Z,42.40
2019-06-26T13:46:39.828Z,43.20
2019-06-26T13:49:09.625Z,42.80
2019-06-26T13:51:39.244Z,43.80
2019-06-26T13:54:09.122Z,44.10
2019-06-26T13:56:38.815Z,44.10
2019-06-26T13:59:08.507Z,44.40
2019-06-26T14:01:38.191Z,45.10
2019-06-26T14:04:07.892Z,43.20
2019-06-26T14:06:37.546Z,43.40
2019-06-26T14:09:08.168Z,43.40
2019-06-26T14:11:37.885Z,44.20
2019-06-26T14:14:07.757Z,47.60
2019-06-26T14:16:37.574Z,49.10
2019-06-26T14:19:07.445Z,48.00
2019-06-26T14:21:37.113Z,46.60
2019-06-26T14:24:06.835Z,48.20
2019-06-26T14:26:36.531Z,48.50
2019-06-26T14:29:20.029Z,48.00
2019-06-26T14:31:38.755Z,47.80
2019-06-26T14:34:08.239Z,46.70
2019-06-26T14:36:37.916Z,46.30
2019-06-26T14:39:07.814Z,47.10
2019-06-26T14:41:39.300Z,48.20
2019-06-26T14:44:09.225Z,48.80
2019-06-26T14:49:08.134Z,48.00
2019-06-26T14:54:08.850Z,50.20
2019-06-26T14:59:07.737Z,48.50
2019-06-26T15:01:37.395Z,48.30
2019-06-26T15:04:07.020Z,48.90
2019-06-26T15:06:36.699Z,48.50
2019-06-26T15:09:06.779Z,47.60
2019-06-26T15:11:36.450Z,47.20
2019-06-26T15:16:36.823Z,47.60
2019-06-26T15:19:06.474Z,47.40
2019-06-26T15:21:36.230Z,46.10
2019-06-26T15:24:05.861Z,45.70
2019-06-26T15:26:37.798Z,45.90
2019-06-26T15:29:07.434Z,45.80
2019-06-26T15:31:37.099Z,45.60
2019-06-26T15:34:06.750Z,46.80
2019-06-26T15:36:36.460Z,46.20
2019-06-26T15:39:07.520Z,46.70
2019-06-26T15:41:37.241Z,46.00
2019-06-26T15:44:07.209Z,46.10
2019-06-26T15:46:36.962Z,46.50
2019-06-26T15:49:06.700Z,46.20
2019-06-26T15:51:37.417Z,45.20
2019-06-26T15:54:07.102Z,43.80
2019-06-26T15:56:39.632Z,44.90
2019-06-26T15:59:09.329Z,45.00
2019-06-26T16:01:39.078Z,43.10
2019-06-26T16:04:08.819Z,42.10
2019-06-26T16:06:38.629Z,42.90
2019-06-26T16:09:08.456Z,42.70
2019-06-26T16:11:38.174Z,41.60
2019-06-26T16:14:07.811Z,41.70
2019-06-26T16:16:39.382Z,41.20
2019-06-26T16:19:10.684Z,39.70
2019-06-26T16:21:40.334Z,39.20
2019-06-26T16:24:11.057Z,39.50
2019-06-26T16:26:40.770Z,39.20
2019-06-26T16:29:10.437Z,39.60
2019-06-26T16:31:40.075Z,39.50
2019-06-26T16:34:09.750Z,38.60
2019-06-26T16:36:39.497Z,38.70
2019-06-26T16:39:09.270Z,38.50
2019-06-26T16:41:51.516Z,38.10
2019-06-26T16:44:22.009Z,37.10
2019-06-26T16:46:51.650Z,37.40
2019-06-26T16:49:21.290Z,37.40
2019-06-26T16:51:50.927Z,37.30
2019-06-26T16:54:20.638Z,37.20
2019-06-26T17:01:48.879Z,36.30
2019-06-26T17:04:18.503Z,36.00
2019-06-26T17:06:48.145Z,36.00
2019-06-26T17:09:17.959Z,35.90
2019-06-26T17:11:47.698Z,35.20
2019-06-26T17:14:17.375Z,35.20
2019-06-26T17:19:16.365Z,35.40
2019-06-26T17:21:46.065Z,35.00
2019-06-26T17:26:45.008Z,34.80
2019-06-26T17:29:14.643Z,34.80
2019-06-26T17:31:44.299Z,34.70
2019-06-26T17:34:13.941Z,34.70
2019-06-26T17:36:43.575Z,34.30
2019-06-26T17:39:13.343Z,34.30
2019-06-26T17:41:44.131Z,34.10
2019-06-26T17:44:14.023Z,33.90
2019-06-26T17:46:43.808Z,34.10
2019-06-26T17:49:13.498Z,33.50
2019-06-26T17:51:43.157Z,33.60
2019-06-26T17:54:13.450Z,33.30
2019-06-26T17:56:43.105Z,33.00
2019-06-26T17:59:12.899Z,33.00
2019-06-26T18:01:42.553Z,32.90
2019-06-26T18:06:41.529Z,32.40
2019-06-26T18:09:12.311Z,32.70
2019-06-26T18:14:11.552Z,32.20
2019-06-26T18:16:41.268Z,32.10
2019-06-26T18:19:11.018Z,31.80
2019-06-26T18:21:41.878Z,32.00
2019-06-26T18:24:11.581Z,31.90
2019-06-26T18:29:10.529Z,31.60
2019-06-26T18:31:40.177Z,31.50
2019-06-26T18:34:09.870Z,31.40
2019-06-26T18:36:39.514Z,31.30
2019-06-26T18:39:09.530Z,31.30
2019-06-26T18:41:39.214Z,31.10
2019-06-26T18:44:08.944Z,31.00
2019-06-26T18:46:38.594Z,31.00
2019-06-26T18:49:08.339Z,31.00
2019-06-26T18:51:37.974Z,30.80
2019-06-26T18:54:07.626Z,30.80
2019-06-26T18:56:37.339Z,30.70
2019-06-26T18:59:10.069Z,30.70
2019-06-26T19:01:39.822Z,30.60
2019-06-26T19:04:09.449Z,30.40
2019-06-26T19:06:39.248Z,30.40
2019-06-26T19:09:09.077Z,30.30
2019-06-26T19:11:38.723Z,30.30
2019-06-26T19:14:08.531Z,30.20
2019-06-26T19:16:38.313Z,30.10
2019-06-26T19:19:08.068Z,31.70
2019-06-26T19:21:37.811Z,29.90
2019-06-26T19:24:10.513Z,30.00
2019-06-26T19:26:38.924Z,30.00
2019-06-26T19:29:08.734Z,29.90
2019-06-26T19:31:38.440Z,29.90
2019-06-26T19:34:08.377Z,29.80
2019-06-26T19:36:49.511Z,29.70
2019-06-26T19:39:09.503Z,29.70
2019-06-26T19:41:39.341Z,29.70
2019-06-26T19:44:09.347Z,29.60
2019-06-26T19:46:41.932Z,29.60
2019-06-26T19:49:10.627Z,29.50
2019-06-26T19:51:40.382Z,29.50
2019-06-26T19:54:25.786Z,29.50
2019-06-26T19:56:41.518Z,29.50
2019-06-26T19:59:11.204Z,29.40
2019-06-26T20:01:40.864Z,29.30
2019-06-26T20:04:10.584Z,29.30
2019-06-26T20:06:41.246Z,29.20
2019-06-26T20:09:11.084Z,29.20
2019-06-26T20:11:40.864Z,29.10
2019-06-26T20:14:10.613Z,29.00
2019-06-26T20:16:40.415Z,29.00
2019-06-26T20:19:10.237Z,29.00
2019-06-26T20:21:40.091Z,28.90
2019-06-26T20:24:09.783Z,28.90
2019-06-26T20:26:39.535Z,28.80
2019-06-26T20:29:09.198Z,28.80
2019-06-26T20:31:38.929Z,28.70
2019-06-26T20:34:08.636Z,28.70
2019-06-26T20:36:38.408Z,28.70
2019-06-26T20:39:08.160Z,28.70
2019-06-26T20:41:37.928Z,28.70
2019-06-26T20:44:07.678Z,28.60
2019-06-26T20:46:37.329Z,28.60
2019-06-26T20:49:07.096Z,28.60
2019-06-26T20:51:36.775Z,28.50
2019-06-26T20:54:07.418Z,28.50
2019-06-26T20:56:37.223Z,28.50
2019-06-26T20:59:06.944Z,28.40
2019-06-26T21:01:36.634Z,28.40
2019-06-26T21:04:06.317Z,28.30
2019-06-26T21:06:36.076Z,28.30
2019-06-26T21:09:06.137Z,28.30
2019-06-26T21:11:35.934Z,28.20
2019-06-26T21:14:05.702Z,28.20
2019-06-26T21:16:36.517Z,28.10
2019-06-26T21:19:06.282Z,28.10
2019-06-26T21:21:35.920Z,28.10
2019-06-26T21:24:05.621Z,28.10
2019-06-26T21:26:35.404Z,28.00
2019-06-26T21:29:05.136Z,28.00
2019-06-26T21:31:34.860Z,27.90
2019-06-26T21:34:04.541Z,27.90
2019-06-26T21:36:34.364Z,27.90
2019-06-26T21:39:05.908Z,27.90
2019-06-26T21:41:35.775Z,27.90
2019-06-26T21:44:05.475Z,27.80
2019-06-26T21:46:35.124Z,27.80
2019-06-26T21:49:04.880Z,27.80
2019-06-26T21:51:34.540Z,27.70
2019-06-26T21:54:04.277Z,27.70
2019-06-26T21:56:52.851Z,27.70
2019-06-26T21:59:40.512Z,27.70
2019-06-26T22:02:28.412Z,27.60
2019-06-26T22:05:00.062Z,27.60
2019-06-26T22:07:34.634Z,27.50
2019-06-26T22:10:18.022Z,27.50
2019-06-26T22:12:47.934Z,27.40
2019-06-26T22:15:18.683Z,27.40
2019-06-26T22:17:48.589Z,27.40
2019-06-26T22:20:18.408Z,27.40
2019-06-26T22:22:48.222Z,27.30
2019-06-26T22:25:18.299Z,27.30
2019-06-26T22:27:48.199Z,27.30
2019-06-26T22:30:19.682Z,27.30
2019-06-26T22:32:49.391Z,27.30
2019-06-26T22:35:19.148Z,27.20
2019-06-26T22:37:48.908Z,27.20
2019-06-26T22:40:18.907Z,27.20
2019-06-26T22:42:48.636Z,27.10
2019-06-26T22:45:18.733Z,27.10
2019-06-26T22:47:48.549Z,27.10
2019-06-26T22:50:18.560Z,27.10
2019-06-26T22:52:48.498Z,27.10
2019-06-26T22:55:18.304Z,27.10
2019-06-26T22:57:48.836Z,27.00
2019-06-26T23:00:19.163Z,27.00
2019-06-26T23:02:48.928Z,27.00
2019-06-26T23:05:18.712Z,27.00
2019-06-26T23:07:48.403Z,27.00
2019-06-26T23:10:18.131Z,27.00
2019-06-26T23:12:47.886Z,27.00
2019-06-26T23:15:18.728Z,27.00
2019-06-26T23:17:48.467Z,26.90
2019-06-26T23:20:18.157Z,26.90
2019-06-26T23:22:47.925Z,26.90
2019-06-26T23:25:17.690Z,26.90
2019-06-26T23:27:47.403Z,26.80
2019-06-26T23:30:18.802Z,26.80
2019-06-26T23:32:48.522Z,26.80
2019-06-26T23:35:18.194Z,26.80
2019-06-26T23:37:48.003Z,26.80
2019-06-26T23:40:18.108Z,26.70
2019-06-26T23:42:47.759Z,26.60
2019-06-26T23:45:20.242Z,26.60
2019-06-26T23:47:49.982Z,26.60
2019-06-26T23:50:19.626Z,26.50
2019-06-26T23:52:49.297Z,26.50
2019-06-26T23:55:19.076Z,26.50
2019-06-26T23:57:59.064Z,26.50
